KMLC

Mc Alester Regional Airport

Mc Alester, Oklahoma, USA
METAR KMLC 221953Z AUTO 20005KT 10SM CLR 18/05 A3017 RMK AO2 SLP213 T01780050
Observed Flight Rules
Oct-22 @ 19:53 UTC (an hour ago) Visual Flight Rules
Wind Visibility Clouds
200° at 5 knots 10 miles
  • Clear skies
Temperatures Readings
Current 18°C / 64°F
Dewpoint 5°C / 41°F
Humidity 43%
Altimeter 30.17" Hg
Pressure 1021.3 hPa
Elevation 232
METAR KMLC 221953Z AUTO 20005KT 10SM CLR 18/05 A3017 RMK AO2 SLP213 T01780050
Observed Flight Rules
Oct-22 @ 19:53 UTC
(an hour ago)
VFR
Wind Visibility
200° at 5 knots 10 miles
Clouds
  • Clear skies
Temperature Dewpoint
18°C / 64°F 5°C / 41°F
Humidity Altimeter Pressure
43% 30.17" Hg 1021.3 hPa